Ana Sayfa
METAR-TAF:

METAR-TAF

Havaalanları :

La Paz, Meksika

Enlem: 24-04N, Boylam: 110-22W, yükseklik: 21 m

Güncel hava durumu gözlemi

Rapor saat 22:42 UTC de 54 dakika önce yapıldı.
Rüzgar kuzeydan 8 kt
Sıcaklık 24°C
Nem 38%
Basınç 1017 hPa
Görüş mesafesi: 16.1 km
3000 ft yükseklikte az bulutlu

METAR: MMLP 262242Z 36008KT 10SM FEW030 24/09 A3003 RMK 8/400

Saat: 16:36 (23:36 UTC)

Tahmin

Rapor saat 17:08 UTC de 6 saat ve 28 dakika önce yapıldı.
Ayın 26'si saat 18 UTC'den ayın 27'si saat 18 UTC'ye kadar geçerli Tahmin
Rüzgar kuzey/kuzeybatıdan 15 kt
Görüş mesafesi: 10 km
2000 ft yükseklikte parçalı bulutlu
Ayın 27'si saat 0000 UTC'den
Rüzgar batı/kuzeybatıdan 10 kt
Görüş mesafesi: 10 km
3000 ft yükseklikte parçalı çok bulutlu
Ayın 27'si saat 1500 UTC'den
Rüzgar güney/güneydoğudan 10 kt
Görüş mesafesi: 10 km
Açık gökyüzü

TAF: MMLP 261708Z 2618/2718 34015KT P6SM SCT020 FM270000 30010KT P6SM BKN030 FM271500 16010KT P6SM SKC

4.000'den fazla havaalanı için hava durumu gözlemleri ve tahminleri (METAR ve TAF raporları).

Kullanılabilir istasyonlar harita üzerinde sarı ve kırmızı noktalarla gösterilir.

İstasyonun adını görmek için fareyi noktanın üzerinde gezdirin.

Sonrasında hava gözlem ve tahminlerini görmek için tıklayın.

Haritayı değiştirmek için: yaklaştırmak için siyah artı işaretli yeşil düğmeye ve uzaklaştırmak için de eksi işaretli düğmeye hızla tıklayın; bitişik haritalar için yeşil okları kullanın.


METAR-TAF: